Main page
METAR-TAF:

METAR-TAF

Airports :

León Airport

León, Spain

latitude: 42-35N, longitude: 005-39W, elevation: 926 m

Current weather observation

The report was made 40 minutes ago, at 05:00 UTC
Wind 4 kt from the North/Northwest, varying between Northwest and North
Temperature 14°C
Humidity 63%
Pressure 1021 hPa
Visibility 10 km or more

METAR: LELN 240500Z AUTO 34004KT 310V010 9999 NCD 14/07 Q1021

Time: 07:40 (05:40 UTC)

Forecast

The report was made 40 minutes ago, at 05:00 UTC
Forecast valid from 24 at 06 UTC to 24 at 15 UTC
Wind 5 kt from variable directions
Visibility 10 km or more
no clouds below 1500 m and no cumulonimbus
Probability 40% :
Temporary
from 24 at 12 UTC to 24 at 15 UTC
Wind 10 kt from the South

TAF: LELN 240500Z 2406/2415 VRB05KT CAVOK PROB40 TEMPO 2412/2415 18010KT

Weather observations and forecasts of more than 4000 airports (METAR and TAF reports).

The available stations are represented by yellow and red dots on the map.

Hover mouse over dot to see the name of the station.

Then click to see weather observations and forecasts.

To change the map : click on the green buttons with a black cross to zoom in, on the green button with a dash to zoom out, or on the green arrows for adjacent maps.


METAR-TAF: